Time;durP1;ratioP1;P1;durP2;ratioP2;P2;SDS_P1;SDS_P2;PMS_P1;PMS_P2;Temp;Humidity;BMP_temperature;BMP_pressure;BME280_temperature;BME280_humidity;BME280_pressure;Samples;Min_cycle;Max_cycle;Signal;HPM_P1;HPM_P2
2022/10/17 00:01:58;;;;;;;12.60;5.27;;;;;;;;;;4971932;28;20045;-61
2022/10/17 00:04:24;;;;;;;10.43;5.53;;;;;;;;;;4972168;28;21003;-61
2022/10/17 00:06:50;;;;;;;10.53;5.90;;;;;;;;;;4971872;28;20054;-61
2022/10/17 00:09:16;;;;;;;9.63;6.23;;;;;;;;;;4972033;28;20061;-61
2022/10/17 00:11:42;;;;;;;9.73;5.90;;;;;;;;;;4971651;28;20074;-61
2022/10/17 00:14:08;;;;;;;9.40;4.80;;;;;;;;;;4972207;28;20078;-61
2022/10/17 00:16:38;;;;;;;11.03;5.53;;;;;;;;;;4972120;28;20488;-61
2022/10/17 00:19:06;;;;;;;12.97;6.30;;;;;;;;;;4972039;28;20524;-60
2022/10/17 00:21:32;;;;;;;16.17;7.20;;;;;;;;;;4971967;28;20051;-61
2022/10/17 00:23:58;;;;;;;11.70;6.20;;;;;;;;;;4971314;28;20445;-60
2022/10/17 00:26:24;;;;;;;11.80;5.93;;;;;;;;;;4960982;28;20488;-63
2022/10/17 00:28:51;;;;;;;11.93;6.10;;;;;;;;;;4952114;29;20065;-62
2022/10/17 00:31:19;;;;;;;10.97;6.60;;;;;;;;;;4952532;29;20061;-62
2022/10/17 00:33:45;;;;;;;11.47;5.90;;;;;;;;;;4952330;29;20047;-62
2022/10/17 00:36:15;;;;;;;16.60;6.33;;;;;;;;;;4952363;29;20047;-62
2022/10/17 00:38:42;;;;;;;11.10;6.43;;;;;;;;;;4952081;29;20051;-62
2022/10/17 00:41:09;;;;;;;10.80;6.47;;;;;;;;;;4951426;29;20174;-62
2022/10/17 00:43:48;;;;;;;9.27;5.93;;;;;;;;;;4951902;29;20055;-62
2022/10/17 00:46:14;;;;;;;9.23;5.87;;;;;;;;;;4952203;29;20094;-62
2022/10/17 00:48:40;;;;;;;11.03;6.20;;;;;;;;;;4950965;29;20048;-62
2022/10/17 00:51:06;;;;;;;10.10;5.97;;;;;;;;;;4952414;29;20055;-62
2022/10/17 00:53:33;;;;;;;12.43;6.33;;;;;;;;;;4952002;29;20054;-62
2022/10/17 00:55:59;;;;;;;7.70;5.70;;;;;;;;;;4952094;29;20047;-62
2022/10/17 00:58:25;;;;;;;23.30;7.50;;;;;;;;;;4951973;29;20489;-62
2022/10/17 01:00:51;;;;;;;12.13;5.83;;;;;;;;;;4952098;29;20058;-62
2022/10/17 01:03:17;;;;;;;11.63;5.93;;;;;;;;;;4950598;28;20047;-62
2022/10/17 01:05:43;;;;;;;7.13;5.73;;;;;;;;;;4951651;29;20078;-62
2022/10/17 01:08:10;;;;;;;10.40;5.27;;;;;;;;;;4952001;29;20054;-62
2022/10/17 01:10:50;;;;;;;9.67;6.07;;;;;;;;;;4951831;28;20047;-62
2022/10/17 01:13:30;;;;;;;11.93;5.87;;;;;;;;;;4970727;28;20047;-62
2022/10/17 01:16:04;;;;;;;10.67;6.50;;;;;;;;;;4970627;28;20130;-62
2022/10/17 01:18:34;;;;;;;12.27;6.07;;;;;;;;;;4969803;28;20050;-62
2022/10/17 01:21:09;;;;;;;13.60;6.40;;;;;;;;;;4970777;28;20050;-62
2022/10/17 01:23:54;;;;;;;13.00;6.50;;;;;;;;;;4970706;28;20043;-62
2022/10/17 01:26:38;;;;;;;10.00;7.00;;;;;;;;;;4970510;28;20077;-62
2022/10/17 01:29:10;;;;;;;13.70;7.17;;;;;;;;;;4969920;28;20456;-62
2022/10/17 01:31:44;;;;;;;12.17;7.90;;;;;;;;;;4968877;28;20421;-62
2022/10/17 01:34:15;;;;;;;11.70;7.67;;;;;;;;;;4970840;28;20159;-62
2022/10/17 01:36:47;;;;;;;13.33;7.97;;;;;;;;;;4969981;28;20077;-62
2022/10/17 01:39:22;;;;;;;11.77;8.13;;;;;;;;;;4970517;28;20043;-62
2022/10/17 01:41:48;;;;;;;11.03;8.17;;;;;;;;;;4970651;28;20047;-62
2022/10/17 01:44:20;;;;;;;15.13;8.43;;;;;;;;;;4970176;28;20046;-62
2022/10/17 01:46:49;;;;;;;16.13;8.73;;;;;;;;;;4970004;28;20109;-62
2022/10/17 01:49:18;;;;;;;11.27;8.23;;;;;;;;;;4969026;28;20089;-61
2022/10/17 01:51:56;;;;;;;13.70;8.90;;;;;;;;;;4970328;28;20043;-62
2022/10/17 01:54:42;;;;;;;11.93;8.57;;;;;;;;;;4970255;28;20070;-62
2022/10/17 01:57:09;;;;;;;14.23;9.07;;;;;;;;;;4970669;28;20038;-62
2022/10/17 01:59:37;;;;;;;16.30;9.50;;;;;;;;;;4969756;28;20043;-62
2022/10/17 02:02:04;;;;;;;13.80;9.23;;;;;;;;;;4970091;28;20494;-62
2022/10/17 02:04:31;;;;;;;15.90;9.73;;;;;;;;;;4970224;28;20097;-62
2022/10/17 02:06:57;;;;;;;39.70;12.50;;;;;;;;;;4969878;28;20086;-62
2022/10/17 02:09:24;;;;;;;18.20;10.83;;;;;;;;;;4970088;28;20047;-62
2022/10/17 02:12:09;;;;;;;14.70;10.97;;;;;;;;;;4970066;28;20072;-62
2022/10/17 02:15:01;;;;;;;13.50;10.50;;;;;;;;;;4969592;28;20078;-62
2022/10/17 02:17:37;;;;;;;14.03;10.63;;;;;;;;;;4939666;28;20054;-62
2022/10/17 02:20:09;;;;;;;13.83;10.83;;;;;;;;;;4969798;28;20046;-62
2022/10/17 02:22:41;;;;;;;14.57;10.83;;;;;;;;;;4969858;28;20130;-62
2022/10/17 02:25:10;;;;;;;18.97;12.40;;;;;;;;;;4969550;28;20497;-62
2022/10/17 02:27:36;;;;;;;13.93;11.03;;;;;;;;;;4969960;28;20412;-62
2022/10/17 02:30:05;;;;;;;21.93;12.60;;;;;;;;;;4969489;28;20059;-62
2022/10/17 02:32:36;;;;;;;17.10;11.80;;;;;;;;;;4969872;28;20061;-62
2022/10/17 02:35:03;;;;;;;18.13;13.37;;;;;;;;;;4969321;28;20049;-62
2022/10/17 02:37:30;;;;;;;19.97;12.77;;;;;;;;;;4970013;28;20047;-62
2022/10/17 02:39:57;;;;;;;18.37;13.33;;;;;;;;;;4969512;28;20125;-62
2022/10/17 02:42:24;;;;;;;23.00;12.57;;;;;;;;;;4970985;28;20042;-62
2022/10/17 02:44:50;;;;;;;18.40;12.33;;;;;;;;;;4973481;28;20067;-62
2022/10/17 02:47:22;;;;;;;20.47;12.50;;;;;;;;;;4973854;28;20039;-62
2022/10/17 02:49:53;;;;;;;22.37;12.87;;;;;;;;;;4972638;28;20125;-62
2022/10/17 02:52:33;;;;;;;16.97;12.47;;;;;;;;;;4973280;28;20055;-62
2022/10/17 02:55:09;;;;;;;15.87;12.00;;;;;;;;;;4972821;28;20419;-62
2022/10/17 02:57:37;;;;;;;15.83;13.70;;;;;;;;;;4973369;28;20171;-62
2022/10/17 03:00:06;;;;;;;20.33;13.70;;;;;;;;;;4973292;28;20050;-62
2022/10/17 03:02:39;;;;;;;16.73;14.47;;;;;;;;;;4973560;28;20047;-62
2022/10/17 03:05:05;;;;;;;17.83;14.98;;;;;;;;;;4973271;28;20097;-63
2022/10/17 03:07:31;;;;;;;19.50;14.57;;;;;;;;;;4973118;28;20145;-62
2022/10/17 03:09:57;;;;;;;22.53;15.93;;;;;;;;;;4972677;28;20133;-62
2022/10/17 03:12:23;;;;;;;19.20;15.63;;;;;;;;;;4960891;28;20501;-62
2022/10/17 03:14:49;;;;;;;22.60;16.40;;;;;;;;;;4954034;29;20043;-62
2022/10/17 03:17:15;;;;;;;19.77;14.97;;;;;;;;;;4953590;29;20043;-62
2022/10/17 03:19:41;;;;;;;20.13;15.40;;;;;;;;;;4953617;29;20417;-62
2022/10/17 03:22:07;;;;;;;25.27;16.77;;;;;;;;;;4953870;29;20050;-62
2022/10/17 03:24:33;;;;;;;23.03;15.93;;;;;;;;;;4953625;29;20055;-62
2022/10/17 03:26:59;;;;;;;23.50;15.90;;;;;;;;;;4953469;29;20671;-62
2022/10/17 03:29:25;;;;;;;24.00;17.13;;;;;;;;;;4953687;28;20267;-62
2022/10/17 03:31:51;;;;;;;21.93;17.37;;;;;;;;;;4953030;29;20086;-62
2022/10/17 03:34:17;;;;;;;24.93;17.50;;;;;;;;;;4953658;29;20145;-62
2022/10/17 03:36:44;;;;;;;25.20;16.17;;;;;;;;;;4953584;29;20052;-62
2022/10/17 03:39:10;;;;;;;21.47;16.20;;;;;;;;;;4952066;29;20133;-62
2022/10/17 03:41:36;;;;;;;24.73;17.83;;;;;;;;;;4952048;29;20047;-63
2022/10/17 03:44:02;;;;;;;26.97;19.07;;;;;;;;;;4953286;29;20050;-62
2022/10/17 03:46:28;;;;;;;28.03;17.97;;;;;;;;;;4953522;29;20043;-62
2022/10/17 03:48:54;;;;;;;23.30;17.70;;;;;;;;;;4936006;29;20489;-62
2022/10/17 03:51:20;;;;;;;27.53;18.83;;;;;;;;;;4952796;29;20043;-62
2022/10/17 03:53:46;;;;;;;27.47;18.43;;;;;;;;;;4952428;28;20051;-62
2022/10/17 03:56:13;;;;;;;31.47;20.70;;;;;;;;;;4953011;29;20511;-62
2022/10/17 03:58:40;;;;;;;28.07;19.30;;;;;;;;;;4952604;29;20031;-62
2022/10/17 04:01:11;;;;;;;27.73;19.70;;;;;;;;;;4953034;29;20039;-62
2022/10/17 04:03:37;;;;;;;27.93;20.23;;;;;;;;;;4953047;29;20098;-62
2022/10/17 04:06:03;;;;;;;27.13;18.53;;;;;;;;;;4953083;29;20047;-62
2022/10/17 04:08:30;;;;;;;27.10;19.60;;;;;;;;;;4953062;29;20090;-62
2022/10/17 04:11:03;;;;;;;31.40;20.30;;;;;;;;;;4952818;28;20058;-63
2022/10/17 04:13:29;;;;;;;;;;;;;;;;;;4972744;28;20087;-62
2022/10/17 04:16:06;;;;;;;27.73;19.73;;;;;;;;;;4971999;28;19926;-63
2022/10/17 04:18:32;;;;;;;30.63;19.17;;;;;;;;;;4972078;28;20178;-62
2022/10/17 04:21:00;;;;;;;28.07;19.90;;;;;;;;;;4970962;28;20463;-62
2022/10/17 04:23:26;;;;;;;26.40;19.40;;;;;;;;;;4961307;28;20068;-62
2022/10/17 04:25:55;;;;;;;36.07;21.50;;;;;;;;;;4971263;28;20074;-62
2022/10/17 04:28:21;;;;;;;29.00;21.47;;;;;;;;;;4966792;28;20051;-62
2022/10/17 04:30:47;;;;;;;33.23;21.60;;;;;;;;;;4952565;29;20584;-62
2022/10/17 04:33:13;;;;;;;25.17;19.53;;;;;;;;;;4951540;29;20059;-63
2022/10/17 04:35:39;;;;;;;33.07;20.53;;;;;;;;;;4960669;28;20053;-62
2022/10/17 04:38:05;;;;;;;32.73;19.97;;;;;;;;;;4970086;28;20063;-62
2022/10/17 04:40:31;;;;;;;25.10;19.90;;;;;;;;;;4970521;28;20057;-62
2022/10/17 04:42:58;;;;;;;31.07;21.23;;;;;;;;;;4970943;28;20054;-62
2022/10/17 04:45:24;;;;;;;25.83;19.20;;;;;;;;;;4971274;28;20046;-62
2022/10/17 04:47:49;;;;;;;30.57;20.87;;;;;;;;;;4971176;28;20456;-62
2022/10/17 04:50:16;;;;;;;25.43;20.20;;;;;;;;;;4970958;28;20058;-62
2022/10/17 04:52:42;;;;;;;30.73;21.73;;;;;;;;;;4970901;28;20129;-62
2022/10/17 04:55:08;;;;;;;33.40;21.00;;;;;;;;;;4970842;28;20127;-62
2022/10/17 04:57:35;;;;;;;28.83;20.43;;;;;;;;;;4969685;28;20046;-63
2022/10/17 05:00:01;;;;;;;28.03;20.60;;;;;;;;;;4966186;28;20058;-62
2022/10/17 05:02:27;;;;;;;28.90;20.10;;;;;;;;;;4960008;28;20068;-62
2022/10/17 05:04:53;;;;;;;29.97;19.63;;;;;;;;;;4957814;28;20122;-62
2022/10/17 05:07:19;;;;;;;26.53;17.63;;;;;;;;;;4956240;28;20138;-63
2022/10/17 05:09:45;;;;;;;23.17;17.60;;;;;;;;;;4959125;28;20056;-62
2022/10/17 05:12:11;;;;;;;28.23;19.00;;;;;;;;;;4958337;28;20621;-63
2022/10/17 05:14:37;;;;;;;26.27;18.93;;;;;;;;;;4963623;28;20035;-62
2022/10/17 05:17:03;;;;;;;25.93;18.63;;;;;;;;;;4963605;28;20047;-62
2022/10/17 05:19:29;;;;;;;27.47;18.60;;;;;;;;;;4959032;28;20450;-63
2022/10/17 05:21:55;;;;;;;26.30;18.70;;;;;;;;;;4960929;28;20071;-62
2022/10/17 05:24:21;;;;;;;27.67;18.37;;;;;;;;;;4965010;28;20181;-62
2022/10/17 05:26:50;;;;;;;28.33;20.03;;;;;;;;;;4963366;28;20154;-63
2022/10/17 05:29:16;;;;;;;30.10;19.27;;;;;;;;;;4961760;28;20046;-63
2022/10/17 05:31:42;;;;;;;30.20;20.13;;;;;;;;;;4960370;28;20521;-62
2022/10/17 05:34:08;;;;;;;31.03;20.00;;;;;;;;;;4963738;28;20049;-62
2022/10/17 05:36:34;;;;;;;28.70;19.30;;;;;;;;;;4961228;28;20129;-63
2022/10/17 05:39:00;;;;;;;28.47;19.03;;;;;;;;;;4959721;28;20051;-62
2022/10/17 05:41:26;;;;;;;29.90;19.50;;;;;;;;;;4959241;28;20039;-62
2022/10/17 05:43:52;;;;;;;24.17;17.87;;;;;;;;;;4956757;28;20039;-63
2022/10/17 05:46:18;;;;;;;25.43;18.63;;;;;;;;;;4961123;28;20043;-63
2022/10/17 05:48:44;;;;;;;27.27;19.07;;;;;;;;;;4962622;28;20070;-62
2022/10/17 05:51:10;;;;;;;33.07;19.33;;;;;;;;;;4957321;28;20075;-63
2022/10/17 05:53:38;;;;;;;25.60;18.13;;;;;;;;;;4957285;28;20054;-63
2022/10/17 05:56:05;;;;;;;21.73;16.80;;;;;;;;;;4959980;28;20429;-63
2022/10/17 05:58:33;;;;;;;26.20;17.10;;;;;;;;;;4963831;28;20050;-63
2022/10/17 06:01:00;;;;;;;24.60;17.30;;;;;;;;;;4963852;28;20043;-62
2022/10/17 06:03:26;;;;;;;23.77;16.77;;;;;;;;;;4961269;28;20066;-63
2022/10/17 06:05:52;;;;;;;23.10;15.90;;;;;;;;;;4955332;28;20189;-62
2022/10/17 06:08:18;;;;;;;20.97;16.33;;;;;;;;;;4963797;28;20445;-63
2022/10/17 06:10:47;;;;;;;23.93;15.77;;;;;;;;;;4956843;28;20055;-62
2022/10/17 06:13:13;;;;;;;21.63;15.47;;;;;;;;;;4961434;28;20397;-63
2022/10/17 06:15:39;;;;;;;28.63;16.10;;;;;;;;;;4962391;28;20110;-63
2022/10/17 06:18:05;;;;;;;26.67;16.63;;;;;;;;;;4959615;28;20061;-63
2022/10/17 06:20:31;;;;;;;24.70;15.40;;;;;;;;;;4961623;28;20539;-63
2022/10/17 06:22:57;;;;;;;23.83;15.03;;;;;;;;;;4959113;28;20051;-62
2022/10/17 06:25:23;;;;;;;21.73;15.47;;;;;;;;;;4954379;28;20135;-63
2022/10/17 06:27:49;;;;;;;17.83;13.47;;;;;;;;;;4958603;28;20515;-63
2022/10/17 06:30:15;;;;;;;17.70;12.43;;;;;;;;;;4961137;28;20055;-63
2022/10/17 06:32:41;;;;;;;17.80;12.73;;;;;;;;;;4958070;28;20178;-63
2022/10/17 06:35:07;;;;;;;24.30;13.17;;;;;;;;;;4959224;28;20135;-62
2022/10/17 06:37:35;;;;;;;17.33;12.20;;;;;;;;;;4959824;28;20042;-63
2022/10/17 06:40:01;;;;;;;17.63;12.10;;;;;;;;;;4967366;28;20400;-62
2022/10/17 06:42:28;;;;;;;17.27;11.27;;;;;;;;;;4966957;28;20054;-62
2022/10/17 06:44:54;;;;;;;17.13;10.60;;;;;;;;;;4968936;28;20054;-63
2022/10/17 06:47:20;;;;;;;16.27;11.63;;;;;;;;;;4968837;28;20504;-63
2022/10/17 06:49:46;;;;;;;16.77;11.10;;;;;;;;;;4968817;28;20046;-62
2022/10/17 06:52:12;;;;;;;13.20;10.60;;;;;;;;;;4967008;28;20049;-63
2022/10/17 06:54:38;;;;;;;16.50;10.73;;;;;;;;;;4968925;28;20046;-63
2022/10/17 06:57:04;;;;;;;18.47;11.20;;;;;;;;;;4968604;28;20054;-63
2022/10/17 06:59:30;;;;;;;12.93;10.70;;;;;;;;;;4967822;28;20051;-63
2022/10/17 07:01:56;;;;;;;13.00;10.30;;;;;;;;;;4969047;28;20054;-62
2022/10/17 07:04:22;;;;;;;14.73;9.30;;;;;;;;;;4968869;28;20169;-63
2022/10/17 07:06:48;;;;;;;16.03;9.57;;;;;;;;;;4968617;28;20043;-62
2022/10/17 07:09:15;;;;;;;13.63;10.30;;;;;;;;;;4968270;28;20109;-63
2022/10/17 07:11:41;;;;;;;13.43;8.93;;;;;;;;;;4968696;28;20065;-63
2022/10/17 07:14:07;;;;;;;12.20;8.50;;;;;;;;;;4967725;28;20122;-62
2022/10/17 07:16:34;;;;;;;13.13;8.77;;;;;;;;;;4968404;28;20454;-63
2022/10/17 07:19:00;;;;;;;14.67;8.70;;;;;;;;;;4968518;28;20097;-62
2022/10/17 07:21:26;;;;;;;11.00;8.27;;;;;;;;;;4968502;28;20128;-63
2022/10/17 07:23:52;;;;;;;14.07;8.70;;;;;;;;;;4968709;28;20047;-62
2022/10/17 07:26:19;;;;;;;12.57;8.30;;;;;;;;;;4968083;28;20050;-63
2022/10/17 07:28:46;;;;;;;14.43;8.10;;;;;;;;;;4968366;28;20485;-63
2022/10/17 07:31:14;;;;;;;10.43;8.07;;;;;;;;;;4971468;28;20112;-62
2022/10/17 07:33:40;;;;;;;9.63;7.70;;;;;;;;;;4979208;28;20043;-62
2022/10/17 07:36:07;;;;;;;11.07;7.50;;;;;;;;;;4961768;28;20128;-63
2022/10/17 07:38:33;;;;;;;11.90;7.43;;;;;;;;;;4961404;28;20074;-63
2022/10/17 07:41:00;;;;;;;11.17;7.27;;;;;;;;;;4970650;28;20047;-63
2022/10/17 07:43:26;;;;;;;8.07;6.77;;;;;;;;;;4965269;28;20143;-62
2022/10/17 07:45:53;;;;;;;10.33;6.80;;;;;;;;;;4986285;28;20090;-63
2022/10/17 07:48:19;;;;;;;12.83;7.30;;;;;;;;;;4965697;28;20043;-63
2022/10/17 07:50:46;;;;;;;8.30;7.07;;;;;;;;;;4969756;28;20058;-62
2022/10/17 07:53:12;;;;;;;9.97;7.40;;;;;;;;;;4970655;28;20130;-62
2022/10/17 07:55:38;;;;;;;12.23;7.67;;;;;;;;;;4971711;28;20051;-63
2022/10/17 07:58:04;;;;;;;13.07;7.93;;;;;;;;;;4971015;28;20042;-62
2022/10/17 08:00:30;;;;;;;13.67;7.33;;;;;;;;;;4969703;28;20054;-63
2022/10/17 08:02:56;;;;;;;12.43;6.20;;;;;;;;;;4970933;28;20266;-63
2022/10/17 08:05:22;;;;;;;9.33;7.83;;;;;;;;;;4971245;28;20495;-62
2022/10/17 08:07:48;;;;;;;9.73;7.20;;;;;;;;;;4969691;28;20126;-63
2022/10/17 08:10:15;;;;;;;13.50;6.73;;;;;;;;;;4971429;28;20141;-62
2022/10/17 08:12:41;;;;;;;10.80;7.70;;;;;;;;;;4970921;28;20481;-62
2022/10/17 08:15:08;;;;;;;10.77;7.03;;;;;;;;;;4969063;28;20400;-62
2022/10/17 08:17:34;;;;;;;8.67;7.10;;;;;;;;;;4971435;28;20073;-63
2022/10/17 08:20:00;;;;;;;11.70;6.87;;;;;;;;;;4969782;28;20047;-62
2022/10/17 08:22:26;;;;;;;9.93;7.67;;;;;;;;;;4970367;28;20050;-62
2022/10/17 08:24:53;;;;;;;12.87;7.70;;;;;;;;;;4970159;28;20130;-62
2022/10/17 08:27:28;;;;;;;11.00;7.37;;;;;;;;;;4969874;28;20487;-62
2022/10/17 08:29:54;;;;;;;9.17;6.97;;;;;;;;;;4970049;28;20059;-62
2022/10/17 08:32:20;;;;;;;10.30;7.90;;;;;;;;;;4970387;28;21108;-63
2022/10/17 08:34:46;;;;;;;11.03;6.93;;;;;;;;;;4968705;28;20105;-62
2022/10/17 08:37:13;;;;;;;10.13;7.43;;;;;;;;;;4970694;28;20058;-63
2022/10/17 08:39:40;;;;;;;9.83;6.27;;;;;;;;;;4970207;28;20101;-62
2022/10/17 08:42:25;;;;;;;10.37;7.00;;;;;;;;;;4969079;28;20046;-62
2022/10/17 08:45:02;;;;;;;12.53;7.43;;;;;;;;;;4970364;28;20483;-62
2022/10/17 08:47:33;;;;;;;8.63;7.20;;;;;;;;;;4970374;28;20169;-63
2022/10/17 08:50:01;;;;;;;12.10;6.57;;;;;;;;;;4970378;28;20043;-63
2022/10/17 08:52:41;;;;;;;13.37;7.10;;;;;;;;;;4970142;28;20050;-62
2022/10/17 08:55:18;;;;;;;10.50;6.93;;;;;;;;;;4969644;28;20580;-63
2022/10/17 08:57:44;;;;;;;8.63;6.60;;;;;;;;;;4970251;28;20405;-62
2022/10/17 09:00:20;;;;;;;12.57;7.63;;;;;;;;;;4970111;28;20050;-63
2022/10/17 09:03:04;;;;;;;10.53;8.07;;;;;;;;;;4970218;28;20426;-62
2022/10/17 09:05:36;;;;;;;13.53;7.97;;;;;;;;;;4969920;28;20483;-62
2022/10/17 09:08:08;;;;;;;7.47;6.70;;;;;;;;;;4969599;28;20050;-62
2022/10/17 09:10:46;;;;;;;12.77;7.53;;;;;;;;;;4970110;28;20058;-62
2022/10/17 09:13:30;;;;;;;9.83;6.67;;;;;;;;;;4969988;28;20112;-62
2022/10/17 09:16:02;;;;;;;8.23;6.80;;;;;;;;;;4969998;28;20390;-62
2022/10/17 09:18:31;;;;;;;9.93;7.20;;;;;;;;;;4969568;28;20050;-62
2022/10/17 09:21:01;;;;;;;9.73;6.70;;;;;;;;;;4969084;28;20114;-63
2022/10/17 09:23:33;;;;;;;13.27;7.67;;;;;;;;;;4969707;28;20051;-63
2022/10/17 09:26:00;;;;;;;15.97;7.47;;;;;;;;;;4969725;28;20416;-63
2022/10/17 09:28:34;;;;;;;12.60;8.00;;;;;;;;;;4969561;28;20046;-63
2022/10/17 09:31:16;;;;;;;15.83;8.63;;;;;;;;;;4969383;28;20068;-63
2022/10/17 09:33:43;;;;;;;13.73;8.93;;;;;;;;;;4969854;28;20043;-64
2022/10/17 09:36:16;;;;;;;18.27;10.13;;;;;;;;;;4969202;28;20133;-64
2022/10/17 09:38:44;;;;;;;17.23;10.90;;;;;;;;;;4969720;28;20417;-65
2022/10/17 09:41:16;;;;;;;17.67;12.00;;;;;;;;;;4969497;28;20046;-65
2022/10/17 09:43:42;;;;;;;21.13;13.27;;;;;;;;;;4968039;28;20501;-65
2022/10/17 09:46:12;;;;;;;23.03;13.23;;;;;;;;;;4969399;28;20046;-65
2022/10/17 09:48:42;;;;;;;28.27;15.53;;;;;;;;;;4968818;28;20078;-65
2022/10/17 09:51:08;;;;;;;21.70;13.57;;;;;;;;;;4969375;28;20409;-65
2022/10/17 09:53:37;;;;;;;20.13;13.10;;;;;;;;;;4968943;28;20387;-65
2022/10/17 09:56:04;;;;;;;35.60;16.13;;;;;;;;;;4969170;28;20079;-65
2022/10/17 09:58:39;;;;;;;28.30;15.30;;;;;;;;;;4968942;28;20039;-65
2022/10/17 10:01:38;;;;;;;31.10;15.03;;;;;;;;;;4969212;28;20046;-64
2022/10/17 10:04:08;;;;;;;19.77;14.43;;;;;;;;;;4936965;28;20058;-65
2022/10/17 10:06:34;;;;;;;28.40;14.17;;;;;;;;;;4969579;28;20085;-65
2022/10/17 10:09:03;;;;;;;24.13;14.83;;;;;;;;;;4969254;28;20508;-65
2022/10/17 10:11:49;;;;;;;40.50;19.87;;;;;;;;;;4968775;28;20047;-65
2022/10/17 10:14:23;;;;;;;36.80;19.00;;;;;;;;;;4968978;28;20358;-64
2022/10/17 10:16:50;;;;;;;27.20;15.37;;;;;;;;;;4969323;28;20057;-65
2022/10/17 10:19:20;;;;;;;24.60;16.37;;;;;;;;;;4969061;28;20174;-64
2022/10/17 10:22:00;;;;;;;30.80;17.60;;;;;;;;;;4968820;28;20686;-65
2022/10/17 10:24:26;;;;;;;30.27;16.57;;;;;;;;;;4967302;28;20436;-65
2022/10/17 10:26:54;;;;;;;33.67;18.80;;;;;;;;;;4968708;28;20125;-65
2022/10/17 10:29:46;;;;;;;42.80;22.13;;;;;;;;;;4969034;28;20480;-65
2022/10/17 10:32:12;;;;;;;36.93;18.27;;;;;;;;;;4967238;28;20583;-65
2022/10/17 10:34:43;;;;;;;44.90;19.07;;;;;;;;;;4951529;28;20047;-65
2022/10/17 10:37:17;;;;;;;43.07;19.53;;;;;;;;;;4964503;28;20051;-65
2022/10/17 10:39:51;;;;;;;45.60;20.93;;;;;;;;;;4965989;28;20133;-65
2022/10/17 10:42:43;;;;;;;123.53;28.57;;;;;;;;;;4961156;28;20047;-65
2022/10/17 10:45:12;;;;;;;83.80;25.93;;;;;;;;;;4968386;28;20165;-65
2022/10/17 10:47:38;;;;;;;47.87;21.67;;;;;;;;;;4968591;28;20081;-65
2022/10/17 10:50:07;;;;;;;49.27;21.47;;;;;;;;;;4968841;28;20143;-65
2022/10/17 10:52:42;;;;;;;38.83;19.67;;;;;;;;;;4967855;28;20073;-65
2022/10/17 10:55:16;;;;;;;38.03;20.73;;;;;;;;;;4968953;28;20042;-65
2022/10/17 10:57:43;;;;;;;67.53;27.03;;;;;;;;;;4967142;28;20109;-64
2022/10/17 11:00:14;;;;;;;42.50;20.77;;;;;;;;;;4968692;28;20051;-65
2022/10/17 11:02:57;;;;;;;45.70;22.07;;;;;;;;;;4968893;28;20043;-65
2022/10/17 11:05:55;;;;;;;57.95;24.58;;;;;;;;;;4972222;28;20283;-65
2022/10/17 11:08:38;;;;;;;41.77;21.30;;;;;;;;;;4925271;28;20066;-65
2022/10/17 11:11:16;;;;;;;32.57;18.97;;;;;;;;;;4960980;28;20057;-65
2022/10/17 11:13:48;;;;;;;36.93;20.10;;;;;;;;;;4955863;28;20054;-65
2022/10/17 11:16:23;;;;;;;44.33;22.43;;;;;;;;;;4957392;28;20146;-65
2022/10/17 11:18:52;;;;;;;42.63;22.70;;;;;;;;;;4972296;28;20063;-65
2022/10/17 11:21:25;;;;;;;47.30;24.70;;;;;;;;;;4972284;28;20520;-65
2022/10/17 11:24:11;;;;;;;32.22;19.70;;;;;;;;;;4972389;28;20058;-65
2022/10/17 11:26:41;;;;;;;40.60;21.83;;;;;;;;;;4972127;28;20054;-65
2022/10/17 11:29:10;;;;;;;30.47;19.43;;;;;;;;;;4962470;28;20470;-65
2022/10/17 11:31:39;;;;;;;32.10;20.33;;;;;;;;;;4958365;28;20051;-65
2022/10/17 11:34:09;;;;;;;32.37;19.67;;;;;;;;;;4971712;28;20133;-65
2022/10/17 11:36:37;;;;;;;37.77;20.37;;;;;;;;;;4971414;28;20082;-65
2022/10/17 11:39:21;;;;;;;34.50;20.40;;;;;;;;;;4970387;28;20557;-65
2022/10/17 11:41:50;;;;;;;29.20;18.33;;;;;;;;;;4962019;28;20130;-65
2022/10/17 11:44:36;;;;;;;27.10;17.13;;;;;;;;;;4970569;28;20162;-65
2022/10/17 11:47:18;;;;;;;32.27;18.97;;;;;;;;;;4961945;28;20498;-65
2022/10/17 11:49:50;;;;;;;34.83;19.67;;;;;;;;;;4967609;28;20047;-66
2022/10/17 11:52:38;;;;;;;27.60;17.27;;;;;;;;;;4968854;28;20710;-65
2022/10/17 11:55:24;;;;;;;25.03;16.70;;;;;;;;;;4969929;28;20125;-65
2022/10/17 11:58:09;;;;;;;35.53;19.53;;;;;;;;;;4955724;28;20074;-65
2022/10/17 12:00:38;;;;;;;36.20;20.03;;;;;;;;;;4950360;29;20055;-65
2022/10/17 12:03:04;;;;;;;25.37;16.60;;;;;;;;;;4952214;28;20178;-65
2022/10/17 12:05:40;;;;;;;33.07;19.67;;;;;;;;;;4970730;28;20130;-65
2022/10/17 12:08:13;;;;;;;33.73;18.10;;;;;;;;;;4971311;28;20081;-65
2022/10/17 12:10:45;;;;;;;23.05;15.75;;;;;;;;;;4966300;28;20805;-65
2022/10/17 12:13:29;;;;;;;27.13;17.00;;;;;;;;;;4976585;28;20042;-65
2022/10/17 12:15:56;;;;;;;19.73;14.10;;;;;;;;;;4954312;28;20571;-65
2022/10/17 12:18:26;;;;;;;19.57;13.13;;;;;;;;;;4970830;28;20113;-65
2022/10/17 12:20:56;;;;;;;17.10;12.47;;;;;;;;;;4953614;28;20055;-65
2022/10/17 12:23:29;;;;;;;14.50;11.13;;;;;;;;;;4952228;29;20440;-65
2022/10/17 12:25:59;;;;;;;17.52;11.93;;;;;;;;;;4950398;29;20063;-65
2022/10/17 12:28:25;;;;;;;13.57;11.30;;;;;;;;;;4956563;28;20122;-65
2022/10/17 12:30:53;;;;;;;19.47;12.67;;;;;;;;;;4970642;28;20603;-65
2022/10/17 12:33:26;;;;;;;15.20;11.10;;;;;;;;;;4970863;28;20078;-65
2022/10/17 12:35:52;;;;;;;;;;;;;;;;;;4971549;28;20133;-65
2022/10/17 12:38:18;;;;;;;17.13;11.10;;;;;;;;;;4971103;28;20497;-65
2022/10/17 12:40:49;;;;;;;13.87;10.27;;;;;;;;;;4970736;28;20047;-65
2022/10/17 12:43:15;;;;;;;12.63;9.53;;;;;;;;;;4971107;28;20059;-65
2022/10/17 12:45:47;;;;;;;15.33;11.20;;;;;;;;;;4970350;28;20464;-65
2022/10/17 12:48:33;;;;;;;16.40;10.37;;;;;;;;;;4971178;28;20528;-65
2022/10/17 12:51:05;;;;;;;13.70;10.07;;;;;;;;;;4970014;28;20050;-65
2022/10/17 12:53:46;;;;;;;13.57;9.80;;;;;;;;;;4970104;28;20145;-65
2022/10/17 12:56:13;;;;;;;11.47;8.40;;;;;;;;;;4964695;28;20059;-65
2022/10/17 12:58:44;;;;;;;16.70;10.40;;;;;;;;;;4933858;29;20083;-65
2022/10/17 13:01:17;;;;;;;11.47;8.97;;;;;;;;;;4969637;28;20049;-65
2022/10/17 13:03:48;;;;;;;13.93;10.38;;;;;;;;;;4970440;28;20125;-65
2022/10/17 13:06:19;;;;;;;19.67;10.63;;;;;;;;;;4970762;28;20051;-65
2022/10/17 13:08:48;;;;;;;13.10;9.93;;;;;;;;;;4969587;28;20097;-65
2022/10/17 13:11:14;;;;;;;18.30;11.57;;;;;;;;;;4969760;28;20057;-65
2022/10/17 13:13:51;;;;;;;18.77;11.73;;;;;;;;;;4970433;28;20409;-66
2022/10/17 13:16:30;;;;;;;20.23;12.67;;;;;;;;;;4970377;28;20061;-66
2022/10/17 13:18:56;;;;;;;21.50;12.60;;;;;;;;;;4970121;28;20097;-66
2022/10/17 13:21:22;;;;;;;19.57;13.70;;;;;;;;;;4969274;28;20043;-66
2022/10/17 13:23:50;;;;;;;25.60;14.67;;;;;;;;;;4970406;28;20523;-66
2022/10/17 13:26:20;;;;;;;15.37;8.30;;;;;;;;;;4967723;28;20062;-65
2022/10/17 13:29:09;;;;;;;14.63;9.47;;;;;;;;;;4959317;28;20537;-66
2022/10/17 13:31:36;;;;;;;8.97;5.90;;;;;;;;;;4950879;29;20051;-66
2022/10/17 13:34:04;;;;;;;10.77;5.70;;;;;;;;;;4950439;29;20061;-66
2022/10/17 13:36:31;;;;;;;11.00;6.30;;;;;;;;;;4950709;29;20131;-65
2022/10/17 13:38:58;;;;;;;11.47;6.77;;;;;;;;;;4967449;28;20042;-66
2022/10/17 13:41:29;;;;;;;7.27;4.20;;;;;;;;;;4969781;28;20146;-65
2022/10/17 13:43:57;;;;;;;8.47;4.70;;;;;;;;;;4969363;28;20599;-65
2022/10/17 13:46:30;;;;;;;7.87;4.30;;;;;;;;;;4969526;28;20043;-65
2022/10/17 13:48:57;;;;;;;8.83;4.73;;;;;;;;;;4959535;28;20472;-66
2022/10/17 13:51:25;;;;;;;8.27;4.67;;;;;;;;;;4969796;28;20608;-65
2022/10/17 13:53:51;;;;;;;7.40;4.40;;;;;;;;;;4969430;28;20053;-65
2022/10/17 13:56:24;;;;;;;6.73;3.77;;;;;;;;;;4969703;28;20050;-65
2022/10/17 13:58:51;;;;;;;12.27;4.78;;;;;;;;;;4960206;28;20074;-65
2022/10/17 14:01:18;;;;;;;12.47;4.43;;;;;;;;;;4950520;28;20125;-66
2022/10/17 14:03:45;;;;;;;10.50;4.23;;;;;;;;;;4955076;28;20046;-65
2022/10/17 14:06:21;;;;;;;10.17;5.03;;;;;;;;;;4968923;28;20101;-65
2022/10/17 14:08:50;;;;;;;11.90;5.33;;;;;;;;;;4969166;28;20452;-66
2022/10/17 14:11:36;;;;;;;17.60;6.50;;;;;;;;;;4950433;28;20141;-66
2022/10/17 14:14:03;;;;;;;12.80;5.63;;;;;;;;;;4967475;28;20433;-66
2022/10/17 14:16:38;;;;;;;11.80;5.10;;;;;;;;;;4967598;28;20179;-66
2022/10/17 14:19:05;;;;;;;10.93;5.00;;;;;;;;;;4949027;28;20050;-66
2022/10/17 14:21:31;;;;;;;8.10;4.47;;;;;;;;;;4948549;29;20057;-65
2022/10/17 14:24:14;;;;;;;10.27;5.67;;;;;;;;;;4949610;29;20397;-65
2022/10/17 14:26:51;;;;;;;13.23;4.97;;;;;;;;;;4949828;29;20121;-65
2022/10/17 14:29:28;;;;;;;12.63;5.50;;;;;;;;;;4949691;29;20055;-66
2022/10/17 14:31:58;;;;;;;7.50;4.10;;;;;;;;;;4949827;29;20058;-65
2022/10/17 14:34:27;;;;;;;11.07;3.80;;;;;;;;;;4947989;29;20101;-65
2022/10/17 14:36:54;;;;;;;10.63;5.57;;;;;;;;;;4948944;29;20044;-65
2022/10/17 14:39:24;;;;;;;6.53;4.13;;;;;;;;;;4952189;28;20040;-65